Time;durP1;ratioP1;P1;durP2;ratioP2;P2;SDS_P1;SDS_P2;PMS_P1;PMS_P2;Temp;Humidity;BMP_temperature;BMP_pressure;BME280_temperature;BME280_humidity;BME280_pressure;Samples;Min_cycle;Max_cycle;Signal;HPM_P1;HPM_P2
2023/11/10 00:00:48;;;;;;;2.55;0.60;;;;;;;7.18;100.00;91791.06;2102327;28;20767;-78
2023/11/10 00:01:51;;;;;;;3.28;0.60;;;;;;;7.06;100.00;91790.63;2120547;27;21333;-80
2023/11/10 00:02:52;;;;;;;1.00;0.70;;;;;;;6.97;100.00;91789.78;2123001;27;20491;-78
2023/11/10 00:03:53;;;;;;;2.08;0.60;;;;;;;6.95;100.00;91779.59;2119712;27;20107;-79
2023/11/10 00:04:54;;;;;;;1.38;0.75;;;;;;;6.78;100.00;91778.94;2120666;27;20026;-76
2023/11/10 00:05:55;;;;;;;2.33;0.60;;;;;;;6.79;100.00;91769.06;2120826;27;20023;-80
2023/11/10 00:06:57;;;;;;;0.90;0.50;;;;;;;7.00;100.00;91773.00;2117757;27;20038;-77
2023/11/10 00:07:58;;;;;;;1.80;0.73;;;;;;;6.85;100.00;91780.66;2112673;28;20065;-78
2023/11/10 00:08:59;;;;;;;3.15;0.70;;;;;;;6.98;100.00;91776.09;2102186;28;20028;-79
2023/11/10 00:10:01;;;;;;;1.30;0.45;;;;;;;6.96;100.00;91773.09;2121445;27;20526;-81
2023/11/10 00:11:03;;;;;;;3.58;0.60;;;;;;;6.85;100.00;91778.00;2121640;27;20023;-77
2023/11/10 00:12:04;;;;;;;1.30;0.70;;;;;;;6.90;100.00;91780.13;2122605;27;20489;-79
2023/11/10 00:13:05;;;;;;;1.40;0.52;;;;;;;7.15;100.00;91779.34;2116782;27;20094;-80
2023/11/10 00:14:06;;;;;;;1.73;0.60;;;;;;;7.15;100.00;91784.66;2124405;27;20539;-79
2023/11/10 00:15:09;;;;;;;2.90;0.60;;;;;;;7.06;100.00;91771.28;2122217;27;20386;-81
2023/11/10 00:16:10;;;;;;;0.68;0.43;;;;;;;7.08;100.00;91774.28;2122892;27;20019;-77
2023/11/10 00:17:11;;;;;;;1.40;0.57;;;;;;;6.81;100.00;91772.78;2121629;27;20019;-80
2023/11/10 00:18:12;;;;;;;2.55;0.50;;;;;;;6.84;100.00;91770.44;2111169;27;20022;-80
2023/11/10 00:19:13;;;;;;;1.80;0.57;;;;;;;6.74;100.00;91756.31;2122515;27;20027;-79
2023/11/10 00:20:14;;;;;;;1.65;0.40;;;;;;;6.82;100.00;91768.22;2121294;27;20098;-77
2023/11/10 00:21:23;;;;;;;1.20;0.73;;;;;;;6.90;100.00;91768.75;2122162;27;20027;-77
2023/11/10 00:22:24;;;;;;;1.73;0.60;;;;;;;6.86;100.00;91768.13;2121787;27;20023;-81
2023/11/10 00:23:25;;;;;;;1.48;0.50;;;;;;;7.05;100.00;91773.19;2115116;28;20035;-81
2023/11/10 00:24:26;;;;;;;3.28;1.00;;;;;;;7.05;100.00;91775.84;2120404;27;20502;-81
2023/11/10 00:25:27;;;;;;;2.78;0.57;;;;;;;7.03;100.00;91780.88;2120799;27;20388;-80
2023/11/10 00:26:33;;;;;;;1.30;0.80;;;;;;;7.35;100.00;91781.78;2130053;27;20060;-80
2023/11/10 00:27:34;;;;;;;2.05;0.45;;;;;;;7.14;100.00;91788.50;2115573;27;20016;-78
2023/11/10 00:28:37;;;;;;;4.65;0.70;;;;;;;7.09;100.00;91789.03;2111885;27;20077;-82
2023/11/10 00:29:41;;;;;;;2.60;0.50;;;;;;;7.04;100.00;91795.63;2124925;27;20463;-77
2023/11/10 00:30:42;;;;;;;4.95;0.55;;;;;;;7.06;100.00;91792.53;2120729;27;20051;-79
2023/11/10 00:31:45;;;;;;;4.15;0.77;;;;;;;7.20;100.00;91796.69;2122124;27;20447;-79
2023/11/10 00:32:48;;;;;;;5.32;0.60;;;;;;;7.10;100.00;91793.19;2123775;27;20110;-78
2023/11/10 00:33:50;;;;;;;4.30;0.50;;;;;;;6.93;100.00;91797.09;2121525;27;20051;-80
2023/11/10 00:34:51;;;;;;;1.23;0.60;;;;;;;7.00;100.00;91796.91;2120222;27;20026;-79
2023/11/10 00:35:52;;;;;;;2.10;0.63;;;;;;;6.86;100.00;91787.44;2114229;28;20379;-77
2023/11/10 00:36:53;;;;;;;3.83;0.57;;;;;;;7.18;100.00;91789.13;2115120;28;20015;-79
2023/11/10 00:37:54;;;;;;;1.88;0.50;;;;;;;7.08;100.00;91782.25;2106278;28;20020;-79
2023/11/10 00:38:55;;;;;;;0.77;0.38;;;;;;;6.82;100.00;91778.84;2103324;28;20025;-80
2023/11/10 00:39:57;;;;;;;1.20;0.40;;;;;;;6.65;100.00;91783.50;2112959;28;20024;-78
2023/11/10 00:40:58;;;;;;;1.08;0.30;;;;;;;6.69;100.00;91780.75;2108462;28;20016;-80
2023/11/10 00:42:02;;;;;;;1.20;0.50;;;;;;;6.52;100.00;91786.13;2112320;28;20020;-80
2023/11/10 00:43:03;;;;;;;1.48;0.98;;;;;;;6.54;100.00;91773.19;2121977;27;20482;-81
2023/11/10 00:44:05;;;;;;;0.30;0.30;;;;;;;6.64;100.00;91773.31;2108711;28;20027;-77
2023/11/10 00:45:07;;;;;;;0.90;0.38;;;;;;;6.48;100.00;91774.13;2105018;27;20024;-77
2023/11/10 00:46:08;;;;;;;0.30;0.30;;;;;;;6.63;100.00;91777.09;2111013;28;20054;-78
2023/11/10 00:47:10;;;;;;;0.35;0.35;;;;;;;6.61;100.00;91776.78;2120007;27;20030;-77
2023/11/10 00:48:11;;;;;;;0.30;0.30;;;;;;;6.58;100.00;91770.41;2110875;28;21223;-79
2023/11/10 00:49:15;;;;;;;2.35;0.63;;;;;;;6.63;100.00;91772.56;2110495;28;20023;-81
2023/11/10 00:50:16;;;;;;;0.45;0.32;;;;;;;6.55;100.00;91772.00;2113211;27;20261;-78
2023/11/10 00:51:17;;;;;;;0.93;0.30;;;;;;;6.47;100.00;91776.03;2119254;27;20031;-78
2023/11/10 00:52:19;;;;;;;0.57;0.30;;;;;;;6.52;100.00;91772.84;2120959;27;20027;-77
2023/11/10 00:53:22;;;;;;;1.77;0.55;;;;;;;6.52;100.00;91777.41;2114991;27;20095;-80
2023/11/10 00:54:23;;;;;;;0.93;0.35;;;;;;;6.41;100.00;91764.47;2119143;27;20023;-76
2023/11/10 00:55:26;;;;;;;1.05;0.40;;;;;;;6.34;100.00;91766.56;2121387;27;20092;-77
2023/11/10 00:56:27;;;;;;;0.93;0.22;;;;;;;6.44;100.00;91760.19;2126023;27;20030;-77
2023/11/10 00:57:28;;;;;;;1.55;0.30;;;;;;;6.27;100.00;91765.56;2116940;27;20020;-75
2023/11/10 00:58:29;;;;;;;0.45;0.45;;;;;;;6.27;100.00;91760.28;2121637;27;20031;-78
2023/11/10 00:59:30;;;;;;;0.30;0.30;;;;;;;6.42;100.00;91757.25;2121398;27;20094;-77
2023/11/10 01:00:31;;;;;;;1.75;0.30;;;;;;;6.43;100.00;91764.03;2122030;27;20042;-78
2023/11/10 01:01:37;;;;;;;0.30;0.30;;;;;;;6.37;100.00;91760.41;2118754;27;20476;-80
2023/11/10 01:02:38;;;;;;;0.38;0.20;;;;;;;6.28;100.00;91764.44;2114522;27;20031;-80
2023/11/10 01:03:39;;;;;;;1.60;0.20;;;;;;;6.35;100.00;91776.75;2122188;27;20642;-81
2023/11/10 01:04:42;;;;;;;2.22;0.35;;;;;;;6.33;100.00;91765.06;2121894;27;20023;-78
2023/11/10 01:05:46;;;;;;;0.47;0.20;;;;;;;6.13;100.00;91754.63;2119484;27;20019;-79
2023/11/10 01:06:47;;;;;;;0.25;0.20;;;;;;;6.13;100.00;91760.66;2121125;27;20023;-78
2023/11/10 01:07:48;;;;;;;1.55;0.38;;;;;;;6.13;100.00;91747.41;2121275;27;20181;-77
2023/11/10 01:08:49;;;;;;;0.20;0.20;;;;;;;6.22;100.00;91749.44;2113638;28;20027;-78
2023/11/10 01:09:50;;;;;;;1.30;0.30;;;;;;;6.02;100.00;91749.63;2111186;28;20062;-80
2023/11/10 01:10:51;;;;;;;1.15;0.30;;;;;;;6.09;100.00;91744.09;2105620;28;20038;-76
2023/11/10 01:11:52;;;;;;;0.20;0.20;;;;;;;6.19;100.00;91745.72;2114424;28;20564;-79
2023/11/10 01:12:53;;;;;;;0.20;0.20;;;;;;;6.21;100.00;91745.31;2120649;27;20019;-83
2023/11/10 01:13:55;;;;;;;0.65;0.30;;;;;;;6.20;100.00;91754.44;2120951;27;20057;-77
2023/11/10 01:14:56;;;;;;;0.52;0.32;;;;;;;6.13;100.00;91752.69;2121298;27;20076;-78
2023/11/10 01:15:57;;;;;;;1.00;0.20;;;;;;;6.14;100.00;91750.78;2113560;28;20022;-78
2023/11/10 01:16:58;;;;;;;0.55;0.30;;;;;;;6.16;100.00;91756.44;2114735;28;20020;-77
2023/11/10 01:18:01;;;;;;;0.20;0.20;;;;;;;6.06;100.00;91752.91;2111096;28;20027;-77
2023/11/10 01:19:03;;;;;;;0.40;0.38;;;;;;;6.07;100.00;91761.59;2113594;28;20681;-80
2023/11/10 01:20:06;;;;;;;1.17;0.20;;;;;;;6.15;100.00;91753.03;2115202;27;20047;-79
2023/11/10 01:21:07;;;;;;;0.85;0.40;;;;;;;6.14;100.00;91758.75;2107310;28;20047;-82
2023/11/10 01:22:09;;;;;;;0.80;0.20;;;;;;;6.18;100.00;91759.41;2113042;28;20388;-76
2023/11/10 01:23:10;;;;;;;0.20;0.20;;;;;;;6.23;100.00;91756.22;2121792;27;20035;-77
2023/11/10 01:24:11;;;;;;;0.75;0.20;;;;;;;6.14;100.00;91761.41;2112061;28;20039;-79
2023/11/10 01:25:13;;;;;;;0.10;0.10;;;;;;;6.13;100.00;91752.69;2113460;27;20358;-77
2023/11/10 01:26:15;;;;;;;0.17;0.17;;;;;;;6.20;100.00;91755.16;2118016;27;20049;-78
2023/11/10 01:27:18;;;;;;;0.70;0.20;;;;;;;6.09;100.00;91753.97;2122906;27;20031;-81
2023/11/10 01:28:20;;;;;;;0.20;0.20;;;;;;;6.08;100.00;91755.13;2123127;27;20031;-77
2023/11/10 01:29:21;;;;;;;1.38;0.20;;;;;;;6.11;100.00;91754.31;2119978;27;20086;-77
2023/11/10 01:30:22;;;;;;;0.15;0.15;;;;;;;6.20;100.00;91760.47;2115551;27;20019;-76
2023/11/10 01:31:23;;;;;;;1.65;0.30;;;;;;;6.44;100.00;91750.31;2114403;28;20119;-77
2023/11/10 01:32:24;;;;;;;0.20;0.20;;;;;;;6.38;100.00;91759.25;2116255;27;20030;-77
2023/11/10 01:33:25;;;;;;;0.10;0.10;;;;;;;6.21;100.00;91758.56;2113305;28;20031;-78
2023/11/10 01:34:26;;;;;;;0.52;0.20;;;;;;;6.47;100.00;91752.16;2111594;28;20027;-80
2023/11/10 01:35:27;;;;;;;0.30;0.30;;;;;;;6.17;100.00;91758.66;2111506;28;20020;-79
2023/11/10 01:36:28;;;;;;;0.47;0.25;;;;;;;6.22;100.00;91749.44;2122092;27;20095;-79
2023/11/10 01:37:29;;;;;;;0.90;0.13;;;;;;;6.51;100.00;91744.81;2120516;27;20047;-77
2023/11/10 01:38:30;;;;;;;0.20;0.20;;;;;;;6.60;100.00;91740.81;2117830;27;20838;-82
2023/11/10 01:39:31;;;;;;;0.35;0.20;;;;;;;6.41;100.00;91743.22;2111133;28;20015;-80
2023/11/10 01:40:39;;;;;;;0.57;0.22;;;;;;;6.11;100.00;91743.69;2112374;27;20032;-81
2023/11/10 01:41:40;;;;;;;0.10;0.10;;;;;;;6.26;100.00;91747.44;2121949;27;20024;-79
2023/11/10 01:42:41;;;;;;;0.10;0.10;;;;;;;6.29;100.00;91741.28;2117021;27;20096;-81
2023/11/10 01:43:44;;;;;;;0.20;0.20;;;;;;;6.19;100.00;91740.44;2120861;27;20484;-78
2023/11/10 01:44:46;;;;;;;0.30;0.20;;;;;;;6.19;100.00;91739.66;2113823;27;20016;-79
2023/11/10 01:45:47;;;;;;;0.10;0.10;;;;;;;5.91;100.00;91744.53;2114910;27;20506;-79
2023/11/10 01:46:52;;;;;;;0.25;0.20;;;;;;;5.89;100.00;91744.22;2116246;27;20023;-76
2023/11/10 01:47:53;;;;;;;0.20;0.20;;;;;;;5.96;100.00;91743.31;2112794;28;20062;-78
2023/11/10 01:48:54;;;;;;;0.10;0.10;;;;;;;5.97;100.00;91748.22;2114822;27;20035;-81
2023/11/10 01:49:55;;;;;;;0.20;0.10;;;;;;;5.99;100.00;91750.44;2122618;27;20031;-79
2023/11/10 01:50:56;;;;;;;0.10;0.10;;;;;;;5.99;100.00;91748.53;2120614;27;20050;-77
2023/11/10 01:51:57;;;;;;;0.20;0.20;;;;;;;6.03;100.00;91735.91;2122767;27;20031;-80
2023/11/10 01:52:59;;;;;;;0.10;0.10;;;;;;;6.05;100.00;91741.53;2121371;27;20019;-79
2023/11/10 01:54:01;;;;;;;0.10;0.10;;;;;;;5.92;100.00;91743.41;2119940;27;20023;-82
2023/11/10 01:55:02;;;;;;;0.10;0.10;;;;;;;5.92;100.00;91734.72;2120091;27;20019;-79
2023/11/10 01:56:04;;;;;;;0.52;0.28;;;;;;;5.90;100.00;91744.97;2112541;28;20032;-80
2023/11/10 01:57:11;;;;;;;0.20;0.17;;;;;;;5.83;100.00;91729.97;2112044;28;20027;-81
2023/11/10 01:58:13;;;;;;;0.15;0.15;;;;;;;5.97;100.00;91729.66;2122741;27;20030;-79
2023/11/10 01:59:16;;;;;;;0.20;0.10;;;;;;;6.09;100.00;91732.75;2123610;27;20037;-79
2023/11/10 02:00:20;;;;;;;1.05;0.10;;;;;;;5.96;100.00;91719.44;2120715;27;20023;-79
2023/11/10 02:01:21;;;;;;;0.45;0.20;;;;;;;5.78;100.00;91728.59;2119486;27;20027;-81
2023/11/10 02:02:23;;;;;;;0.50;0.30;;;;;;;5.99;100.00;91723.91;2121941;27;20106;-78
2023/11/10 02:03:24;;;;;;;0.80;0.10;;;;;;;6.04;100.00;91728.69;2119619;27;20399;-80
2023/11/10 02:04:25;;;;;;;0.10;0.10;;;;;;;5.93;100.00;91729.00;2117744;27;20038;-83
2023/11/10 02:05:26;;;;;;;0.10;0.10;;;;;;;5.94;100.00;91730.47;2119615;27;20132;-79
2023/11/10 02:06:26;;;;;;;0.95;0.17;;;;;;;6.11;100.00;91736.47;2108147;28;20038;-79
2023/11/10 02:07:27;;;;;;;0.10;0.10;;;;;;;6.20;100.00;91731.28;2119144;27;20099;-82
2023/11/10 02:08:29;;;;;;;0.80;0.25;;;;;;;6.19;100.00;91740.44;2121229;27;20028;-78
2023/11/10 02:09:31;;;;;;;2.05;0.20;;;;;;;5.87;100.00;91733.28;2114310;28;20024;-78
2023/11/10 02:10:34;;;;;;;1.75;0.40;;;;;;;5.93;100.00;91739.59;2103505;28;20158;-77
2023/11/10 02:11:38;;;;;;;0.43;0.30;;;;;;;6.00;100.00;91734.09;2121848;27;20030;-81
2023/11/10 02:12:49;;;;;;;0.68;0.30;;;;;;;6.01;100.00;91740.16;2120481;27;20061;-80
2023/11/10 02:13:58;;;;;;;2.08;0.35;;;;;;;5.89;100.00;91735.53;2120637;27;20022;-77
2023/11/10 02:15:01;;;;;;;0.20;0.20;;;;;;;5.91;100.00;91736.59;2118926;27;20035;-82
2023/11/10 02:16:03;;;;;;;0.20;0.20;;;;;;;6.15;100.00;91731.06;2120159;27;20449;-78
2023/11/10 02:17:05;;;;;;;0.10;0.10;;;;;;;6.03;100.00;91737.84;2121045;27;20521;-79
2023/11/10 02:18:06;;;;;;;0.43;0.22;;;;;;;6.04;100.00;91734.75;2119369;27;20426;-78
2023/11/10 02:19:16;;;;;;;0.38;0.20;;;;;;;5.97;100.00;91726.22;2119462;27;20811;-77
2023/11/10 02:20:17;;;;;;;1.42;0.20;;;;;;;5.94;100.00;91735.78;2118159;27;20049;-77
2023/11/10 02:21:18;;;;;;;0.20;0.20;;;;;;;5.99;100.00;91731.88;2120068;27;20030;-78
2023/11/10 02:24:10;;;;;;;;;;;;;;;5.24;100.00;91734.50;2146827;27;20117;-83
2023/11/10 02:25:15;;;;;;;0.65;0.30;;;;;;;5.17;100.00;91724.06;2146455;27;19911;-79
2023/11/10 02:26:16;;;;;;;0.10;0.10;;;;;;;5.19;100.00;91731.63;2144248;27;20034;-80
2023/11/10 02:27:17;;;;;;;0.25;0.20;;;;;;;5.24;100.00;91720.50;2125663;27;20020;-81
2023/11/10 02:28:18;;;;;;;0.30;0.20;;;;;;;5.11;100.00;91725.72;2119311;27;20023;-82
2023/11/10 02:29:19;;;;;;;0.13;0.13;;;;;;;5.08;100.00;91715.22;2137689;27;20105;-82
2023/11/10 02:30:20;;;;;;;0.43;0.22;;;;;;;5.14;100.00;91718.88;2143631;27;20022;-81
2023/11/10 02:31:21;;;;;;;0.88;0.22;;;;;;;5.05;100.00;91717.56;2125435;27;20015;-80
2023/11/10 02:32:22;;;;;;;0.22;0.22;;;;;;;5.05;100.00;91714.16;2125543;27;20023;-81
2023/11/10 02:33:23;;;;;;;0.15;0.15;;;;;;;5.31;100.00;91725.63;2134557;27;20029;-81
2023/11/10 02:34:24;;;;;;;0.20;0.20;;;;;;;5.16;100.00;91724.50;2134498;27;20052;-81
2023/11/10 02:35:26;;;;;;;0.20;0.20;;;;;;;5.21;100.00;91718.69;2134760;27;20019;-78
2023/11/10 02:36:31;;;;;;;0.17;0.17;;;;;;;5.12;100.00;91713.97;2136713;27;20026;-80
2023/11/10 02:37:31;;;;;;;0.28;0.28;;;;;;;5.12;100.00;91718.53;2128937;27;20031;-80
2023/11/10 02:38:44;;;;;;;0.10;0.10;;;;;;;5.39;100.00;91711.03;2118102;28;20062;-80
2023/11/10 02:39:45;;;;;;;0.20;0.10;;;;;;;5.27;100.00;91711.75;2119423;27;20796;-82
2023/11/10 02:40:46;;;;;;;0.10;0.10;;;;;;;5.10;100.00;91703.06;2121575;27;20027;-77
2023/11/10 02:41:48;;;;;;;0.10;0.10;;;;;;;4.90;100.00;91702.41;2128261;27;20050;-79
2023/11/10 02:42:49;;;;;;;0.30;0.20;;;;;;;4.96;100.00;91704.16;2126125;27;20022;-80
2023/11/10 02:43:50;;;;;;;0.25;0.10;;;;;;;5.06;100.00;91705.06;2129380;27;20027;-80
2023/11/10 02:44:50;;;;;;;0.28;0.10;;;;;;;5.14;100.00;91703.72;2138311;27;20381;-80
2023/11/10 02:45:51;;;;;;;1.90;0.20;;;;;;;4.88;100.00;91699.44;2138784;27;20018;-81
2023/11/10 02:46:52;;;;;;;0.10;0.10;;;;;;;4.77;100.00;91692.47;2139032;27;20015;-77
2023/11/10 02:47:53;;;;;;;0.10;0.10;;;;;;;4.66;100.00;91697.28;2138806;27;20225;-78
2023/11/10 02:48:54;;;;;;;0.10;0.10;;;;;;;4.72;100.00;91694.88;2127039;27;20023;-83
2023/11/10 02:49:55;;;;;;;0.17;0.17;;;;;;;4.65;100.00;91690.47;2129540;27;20044;-79
2023/11/10 02:50:56;;;;;;;0.10;0.10;;;;;;;4.73;100.00;91683.88;2136643;27;20050;-77
2023/11/10 02:52:00;;;;;;;0.10;0.10;;;;;;;4.68;100.00;91684.38;2128701;27;20018;-82
2023/11/10 02:53:01;;;;;;;0.20;0.20;;;;;;;4.54;100.00;91684.69;2129366;27;20043;-81
2023/11/10 02:54:03;;;;;;;0.13;0.13;;;;;;;4.53;100.00;91683.94;2129105;27;20019;-78
2023/11/10 02:55:04;;;;;;;0.20;0.20;;;;;;;4.50;100.00;91684.78;2118712;28;20051;-81
2023/11/10 02:56:06;;;;;;;0.20;0.20;;;;;;;4.58;100.00;91685.34;2123917;27;20513;-80
2023/11/10 02:57:08;;;;;;;0.20;0.20;;;;;;;4.63;100.00;91684.13;2126518;27;20023;-76
2023/11/10 02:58:09;;;;;;;0.10;0.10;;;;;;;4.72;100.00;91685.03;2124229;27;20505;-78
2023/11/10 02:59:10;;;;;;;1.40;0.20;;;;;;;4.78;100.00;91688.69;2128897;27;20023;-81
2023/11/10 03:00:12;;;;;;;0.10;0.10;;;;;;;4.77;100.00;91683.78;2128702;27;20076;-76
2023/11/10 03:01:21;;;;;;;0.10;0.10;;;;;;;4.77;100.00;91681.13;2115181;28;20854;-78
2023/11/10 03:02:22;;;;;;;0.20;0.20;;;;;;;4.78;100.00;91672.03;2121527;27;20023;-80
2023/11/10 03:03:23;;;;;;;0.20;0.20;;;;;;;4.86;100.00;91675.25;2137855;27;20018;-80
2023/11/10 03:04:23;;;;;;;0.20;0.20;;;;;;;4.83;100.00;91671.56;2127035;27;20595;-81
2023/11/10 03:05:25;;;;;;;0.10;0.10;;;;;;;4.74;100.00;91666.84;2121130;27;20532;-76
2023/11/10 03:06:26;;;;;;;0.10;0.10;;;;;;;4.73;100.00;91665.34;2119968;28;20030;-79
2023/11/10 03:07:27;;;;;;;0.17;0.17;;;;;;;4.72;100.00;91665.75;2119247;28;20020;-78
2023/11/10 03:08:28;;;;;;;0.20;0.20;;;;;;;4.72;100.00;91663.84;2118166;27;20027;-78
2023/11/10 03:09:29;;;;;;;0.20;0.20;;;;;;;4.77;100.00;91659.97;2125173;27;20058;-79
2023/11/10 03:10:30;;;;;;;0.17;0.17;;;;;;;4.69;100.00;91666.59;2127544;27;20052;-80
2023/11/10 03:11:31;;;;;;;0.10;0.10;;;;;;;4.63;100.00;91671.63;2128646;27;20379;-76
2023/11/10 03:12:32;;;;;;;0.10;0.10;;;;;;;4.62;100.00;91678.09;2134741;27;20023;-76
2023/11/10 03:13:34;;;;;;;0.15;0.15;;;;;;;4.66;100.00;91673.47;2129423;27;20030;-77
2023/11/10 03:14:35;;;;;;;0.20;0.20;;;;;;;4.67;100.00;91674.19;2118462;28;20027;-80
2023/11/10 03:15:37;;;;;;;0.13;0.13;;;;;;;4.53;100.00;91678.66;2118874;27;20024;-78
2023/11/10 03:16:40;;;;;;;0.20;0.20;;;;;;;4.70;100.00;91676.78;2118997;28;20027;-78
2023/11/10 03:17:41;;;;;;;0.17;0.17;;;;;;;4.77;100.00;91679.22;2119302;27;20023;-80
2023/11/10 03:18:42;;;;;;;0.10;0.10;;;;;;;4.77;100.00;91679.22;2123532;27;20051;-78
2023/11/10 03:19:50;;;;;;;0.10;0.10;;;;;;;4.60;100.00;91677.00;2117292;28;20087;-78
2023/11/10 03:20:51;;;;;;;0.55;0.20;;;;;;;4.57;100.00;91680.50;2128634;27;20402;-79
2023/11/10 03:21:53;;;;;;;0.20;0.20;;;;;;;4.69;100.00;91677.91;2128355;27;20027;-80
2023/11/10 03:22:54;;;;;;;0.20;0.20;;;;;;;4.76;100.00;91674.38;2129556;27;20015;-79
2023/11/10 03:23:55;;;;;;;0.20;0.20;;;;;;;4.73;100.00;91677.81;2136558;27;20039;-79
2023/11/10 03:24:55;;;;;;;0.43;0.40;;;;;;;4.70;100.00;91673.38;2135000;27;20022;-80
2023/11/10 03:25:57;;;;;;;0.20;0.20;;;;;;;4.52;100.00;91679.81;2124398;27;20047;-79
2023/11/10 03:26:58;;;;;;;0.17;0.17;;;;;;;4.41;100.00;91679.31;2118477;27;20030;-81
2023/11/10 03:27:59;;;;;;;0.10;0.10;;;;;;;4.40;100.00;91677.81;2127194;27;20042;-80
2023/11/10 03:29:01;;;;;;;0.10;0.10;;;;;;;4.59;100.00;91668.31;2124211;27;20019;-78
2023/11/10 03:30:04;;;;;;;0.30;0.30;;;;;;;4.50;100.00;91671.53;2127653;27;20027;-78
2023/11/10 03:31:08;;;;;;;0.13;0.13;;;;;;;4.59;100.00;91672.88;2116707;27;20493;-78
2023/11/10 03:32:09;;;;;;;0.20;0.20;;;;;;;4.48;100.00;91676.50;2117348;28;20051;-77
2023/11/10 03:33:10;;;;;;;1.23;0.20;;;;;;;4.61;100.00;91670.53;2111289;28;20114;-79
2023/11/10 03:34:11;;;;;;;0.10;0.10;;;;;;;4.72;100.00;91679.00;2127485;27;20451;-79
2023/11/10 03:35:12;;;;;;;0.20;0.20;;;;;;;4.50;100.00;91674.19;2122903;27;20045;-79
2023/11/10 03:36:15;;;;;;;0.10;0.10;;;;;;;4.53;100.00;91667.34;2105779;28;20016;-77
2023/11/10 03:37:17;;;;;;;0.20;0.20;;;;;;;4.45;100.00;91677.31;2113297;28;20035;-81
2023/11/10 03:38:19;;;;;;;0.22;0.10;;;;;;;4.37;100.00;91683.19;2121575;27;20019;-80
2023/11/10 03:39:20;;;;;;;0.20;0.20;;;;;;;4.48;100.00;91681.06;2119755;27;20011;-79
2023/11/10 03:40:21;;;;;;;0.20;0.20;;;;;;;4.70;100.00;91678.69;2130537;27;20076;-81
2023/11/10 03:41:23;;;;;;;0.20;0.20;;;;;;;4.80;100.00;91681.06;2123562;27;20047;-81
2023/11/10 03:42:24;;;;;;;0.22;0.10;;;;;;;4.80;100.00;91681.06;2121690;27;20031;-82
2023/11/10 03:43:26;;;;;;;0.10;0.10;;;;;;;4.83;100.00;91679.50;2120454;27;20027;-77
2023/11/10 03:44:27;;;;;;;0.10;0.10;;;;;;;4.84;100.00;91674.94;2105499;28;20077;-79
2023/11/10 03:45:28;;;;;;;0.20;0.20;;;;;;;4.88;100.00;91684.28;2104483;28;20101;-81
2023/11/10 03:46:29;;;;;;;0.10;0.10;;;;;;;4.78;100.00;91688.69;2123105;27;20011;-81
2023/11/10 03:47:30;;;;;;;2.13;0.10;;;;;;;4.80;100.00;91686.34;2130134;27;20478;-78
2023/11/10 03:48:31;;;;;;;0.15;0.15;;;;;;;4.73;100.00;91683.13;2122531;27;20052;-79
2023/11/10 03:49:34;;;;;;;0.90;0.20;;;;;;;4.77;100.00;91675.84;2112150;28;20073;-78
2023/11/10 03:50:35;;;;;;;0.20;0.20;;;;;;;4.80;100.00;91680.31;2122350;27;20072;-78
2023/11/10 03:51:36;;;;;;;0.45;0.22;;;;;;;4.83;100.00;91676.84;2130656;27;20071;-79
2023/11/10 03:52:37;;;;;;;1.13;0.25;;;;;;;4.86;100.00;91678.66;2132501;27;20075;-79
2023/11/10 03:53:41;;;;;;;2.13;0.30;;;;;;;4.75;100.00;91676.28;2130205;27;20046;-79
2023/11/10 03:54:43;;;;;;;0.40;0.30;;;;;;;4.70;100.00;91670.75;2119113;27;20060;-81
2023/11/10 03:55:44;;;;;;;0.75;0.22;;;;;;;4.77;100.00;91667.91;2113580;28;20023;-81
2023/11/10 03:56:46;;;;;;;0.15;0.15;;;;;;;4.85;100.00;91663.94;2118724;27;20380;-77
2023/11/10 03:57:47;;;;;;;0.20;0.20;;;;;;;4.74;100.00;91663.44;2121225;27;20023;-78
2023/11/10 03:58:49;;;;;;;0.20;0.20;;;;;;;4.67;100.00;91658.31;2122829;27;20023;-83
2023/11/10 03:59:50;;;;;;;0.20;0.20;;;;;;;4.78;100.00;91658.81;2123260;27;20023;-79
2023/11/10 04:00:51;;;;;;;0.30;0.20;;;;;;;4.81;100.00;91660.63;2113853;28;20016;-81
2023/11/10 04:01:52;;;;;;;1.08;0.17;;;;;;;4.68;100.00;91657.16;2112123;28;20039;-79
2023/11/10 04:02:54;;;;;;;0.17;0.17;;;;;;;4.73;100.00;91660.03;2108154;28;20587;-79
2023/11/10 04:03:55;;;;;;;0.22;0.20;;;;;;;5.05;100.00;91658.56;2098154;28;20056;-79
2023/11/10 04:04:56;;;;;;;0.20;0.20;;;;;;;5.14;100.00;91652.66;2113241;27;20047;-83
2023/11/10 04:05:57;;;;;;;0.20;0.20;;;;;;;5.12;100.00;91661.00;2122438;27;20466;-80
2023/11/10 04:06:58;;;;;;;0.22;0.17;;;;;;;4.86;100.00;91665.41;2112526;28;20023;-79
2023/11/10 04:07:59;;;;;;;0.20;0.20;;;;;;;4.97;100.00;91662.53;2121694;27;20383;-77
2023/11/10 04:09:02;;;;;;;1.08;0.17;;;;;;;4.87;100.00;91664.25;2122371;27;20023;-80
2023/11/10 04:10:03;;;;;;;0.13;0.13;;;;;;;4.68;100.00;91665.84;2112931;28;20027;-77
2023/11/10 04:11:05;;;;;;;0.10;0.10;;;;;;;4.60;100.00;91671.72;2121401;27;20442;-82
2023/11/10 04:12:06;;;;;;;0.22;0.20;;;;;;;4.40;100.00;91669.88;2120200;27;20023;-78
2023/11/10 04:13:07;;;;;;;0.88;0.30;;;;;;;4.55;100.00;91673.69;2105411;28;20491;-81
2023/11/10 04:14:11;;;;;;;0.80;0.77;;;;;;;4.64;100.00;91673.13;2112707;28;20016;-81
2023/11/10 04:15:12;;;;;;;1.50;1.20;;;;;;;4.67;100.00;91677.59;2120168;27;20019;-81
2023/11/10 04:16:23;;;;;;;0.70;0.65;;;;;;;4.70;100.00;91668.84;2113432;28;20023;-77
2023/11/10 04:17:24;;;;;;;1.65;0.70;;;;;;;4.54;100.00;91674.09;2121183;27;20023;-81
2023/11/10 04:18:28;;;;;;;0.73;0.30;;;;;;;4.58;100.00;91672.13;2121147;27;20384;-80
2023/11/10 04:19:29;;;;;;;1.55;0.40;;;;;;;4.44;100.00;91672.44;2120445;27;20026;-81
2023/11/10 04:20:30;;;;;;;0.70;0.30;;;;;;;4.59;100.00;91664.94;2132029;27;20067;-77
2023/11/10 04:21:31;;;;;;;2.35;0.30;;;;;;;4.60;100.00;91659.22;2120132;27;20060;-81
2023/11/10 04:22:33;;;;;;;0.80;0.80;;;;;;;4.68;100.00;91662.44;2119999;27;20027;-79
2023/11/10 04:23:34;;;;;;;0.70;0.60;;;;;;;4.65;100.00;91657.97;2129888;27;20059;-78
2023/11/10 04:24:35;;;;;;;0.50;0.50;;;;;;;4.68;100.00;91651.88;2119209;27;20015;-78
2023/11/10 04:25:35;;;;;;;0.47;0.28;;;;;;;4.87;100.00;91658.22;2112302;28;20026;-79
2023/11/10 04:26:37;;;;;;;0.98;0.30;;;;;;;4.74;100.00;91658.13;2110982;28;20890;-78
2023/11/10 04:27:39;;;;;;;0.28;0.28;;;;;;;4.84;100.00;91662.47;2120729;27;20031;-81
2023/11/10 04:28:41;;;;;;;1.27;0.20;;;;;;;5.11;100.00;91656.13;2120961;27;20019;-81
2023/11/10 04:29:42;;;;;;;0.68;0.30;;;;;;;5.41;100.00;91661.03;2121799;27;20027;-79
2023/11/10 04:30:44;;;;;;;0.38;0.30;;;;;;;5.30;100.00;91656.00;2121469;27;20019;-82
2023/11/10 04:31:45;;;;;;;0.10;0.10;;;;;;;5.31;100.00;91651.44;2121097;27;20015;-77
2023/11/10 04:32:47;;;;;;;0.43;0.20;;;;;;;4.96;100.00;91661.78;2132186;27;20019;-79
2023/11/10 04:33:48;;;;;;;3.30;0.30;;;;;;;4.96;100.00;91658.38;2127952;27;20075;-80
2023/11/10 04:34:49;;;;;;;0.32;0.20;;;;;;;5.03;100.00;91658.94;2121697;27;20460;-77
2023/11/10 04:35:50;;;;;;;1.17;0.20;;;;;;;5.08;100.00;91662.25;2119569;27;20023;-80
2023/11/10 04:36:51;;;;;;;0.17;0.17;;;;;;;5.13;100.00;91661.75;2130671;27;20030;-78
2023/11/10 04:37:52;;;;;;;0.10;0.10;;;;;;;4.95;100.00;91662.94;2122157;27;20023;-78
2023/11/10 04:38:53;;;;;;;0.20;0.20;;;;;;;4.93;100.00;91662.59;2112474;28;20020;-79
2023/11/10 04:39:54;;;;;;;0.13;0.13;;;;;;;4.98;100.00;91670.03;2121804;27;20023;-79
2023/11/10 04:40:55;;;;;;;0.20;0.20;;;;;;;4.92;100.00;91666.41;2114407;28;20077;-81
2023/11/10 04:41:56;;;;;;;0.17;0.17;;;;;;;5.03;100.00;91655.56;2104196;28;20041;-77
2023/11/10 04:42:57;;;;;;;0.93;0.20;;;;;;;5.00;100.00;91662.44;2121610;27;20418;-78
2023/11/10 04:44:00;;;;;;;0.20;0.20;;;;;;;4.88;100.00;91665.03;2129583;27;20026;-79
2023/11/10 04:45:03;;;;;;;1.33;0.20;;;;;;;4.75;100.00;91673.63;2120577;27;20094;-81
2023/11/10 04:46:04;;;;;;;0.80;0.20;;;;;;;4.97;100.00;91667.81;2110383;28;20023;-80
2023/11/10 04:47:05;;;;;;;0.20;0.20;;;;;;;4.99;100.00;91663.59;2111136;28;20467;-79
2023/11/10 04:48:06;;;;;;;0.20;0.20;;;;;;;4.93;100.00;91667.91;2112214;27;20028;-78
2023/11/10 04:49:09;;;;;;;0.28;0.28;;;;;;;4.91;100.00;91659.63;2111178;28;20032;-78
2023/11/10 04:50:11;;;;;;;2.90;0.20;;;;;;;4.87;100.00;91650.28;2104856;28;20081;-79
2023/11/10 04:51:12;;;;;;;0.60;0.20;;;;;;;4.93;100.00;91659.97;2103687;28;20095;-82
2023/11/10 04:52:14;;;;;;;0.40;0.40;;;;;;;4.80;100.00;91653.84;2113125;28;20610;-81
2023/11/10 04:53:15;;;;;;;0.65;0.20;;;;;;;4.74;100.00;91660.78;2119810;27;20691;-79